Time;durP1;ratioP1;P1;durP2;ratioP2;P2;SDS_P1;SDS_P2;PMS_P1;PMS_P2;Temp;Humidity;BMP_temperature;BMP_pressure;BME280_temperature;BME280_humidity;BME280_pressure;Samples;Min_cycle;Max_cycle;Signal;HPM_P1;HPM_P2
2023/10/08 00:01:16;;;;;;;12.73;6.57;;;10.10;99.90;;;;;;5060451;28;20436;-58
2023/10/08 00:03:48;;;;;;;11.47;7.00;;;10.10;99.90;;;;;;5060190;28;20424;-58
2023/10/08 00:06:14;;;;;;;12.90;7.10;;;10.10;99.90;;;;;;5061534;28;20429;-58
2023/10/08 00:08:41;;;;;;;12.23;7.57;;;10.10;99.90;;;;;;5062770;28;20461;-58
2023/10/08 00:11:07;;;;;;;11.03;7.40;;;10.00;99.90;;;;;;5058713;28;20452;-58
2023/10/08 00:13:39;;;;;;;13.80;6.93;;;10.00;99.90;;;;;;5060192;28;20432;-58
2023/10/08 00:16:16;;;;;;;12.23;7.60;;;10.00;99.90;;;;;;5061789;28;20846;-58
2023/10/08 00:18:48;;;;;;;13.20;6.87;;;10.00;99.90;;;;;;5062787;28;20452;-58
2023/10/08 00:23:52;;;;;;;14.63;7.47;;;9.90;99.90;;;;;;5061404;28;20524;-57
2023/10/08 00:26:27;;;;;;;14.27;7.03;;;9.90;99.90;;;;;;5064779;28;20440;-58
2023/10/08 00:28:59;;;;;;;13.43;6.43;;;9.90;99.90;;;;;;5059045;28;20459;-57
2023/10/08 00:31:37;;;;;;;11.70;6.47;;;9.90;99.90;;;;;;5060081;28;20480;-58
2023/10/08 00:34:05;;;;;;;10.53;6.00;;;9.80;99.90;;;;;;5062513;28;20463;-58
2023/10/08 00:36:30;;;;;;;12.00;6.23;;;9.80;99.90;;;;;;5060905;28;20460;-58
2023/10/08 00:38:59;;;;;;;9.90;5.90;;;9.80;99.90;;;;;;5059275;28;20465;-58
2023/10/08 00:41:30;;;;;;;8.57;5.23;;;9.70;99.90;;;;;;5060412;28;20202;-59
2023/10/08 00:43:59;;;;;;;12.43;5.80;;;9.70;99.90;;;;;;5062384;28;20412;-57
2023/10/08 00:46:30;;;;;;;;;;;;;;;;;;;;;
2023/10/08 00:48:55;;;;;;;12.57;6.27;;;9.60;99.90;;;;;;5064283;28;21111;-57
2023/10/08 00:51:27;;;;;;;15.77;6.87;;;9.60;99.90;;;;;;5059803;28;20476;-58
2023/10/08 00:54:05;;;;;;;8.57;5.50;;;9.60;99.90;;;;;;5059793;28;20531;-58
2023/10/08 00:59:20;;;;;;;12.70;6.30;;;9.60;99.90;;;;;;5065801;28;20428;-58
2023/10/08 01:01:50;;;;;;;10.43;5.60;;;9.50;99.90;;;;;;5064412;28;20436;-57
2023/10/08 01:04:23;;;;;;;11.93;6.20;;;9.50;99.90;;;;;;5067376;28;20428;-57
2023/10/08 01:06:56;;;;;;;11.43;6.50;;;9.50;99.90;;;;;;5062730;28;20439;-58
2023/10/08 01:09:26;;;;;;;12.93;6.13;;;9.50;99.90;;;;;;5062783;28;20938;-57
2023/10/08 01:12:15;;;;;;;10.37;5.37;;;9.50;99.90;;;;;;5064943;28;20455;-59
2023/10/08 01:14:42;;;;;;;12.43;5.90;;;9.50;99.90;;;;;;5065267;28;20435;-58
2023/10/08 01:17:19;;;;;;;11.80;6.40;;;9.50;99.90;;;;;;5061854;28;21133;-59
2023/10/08 01:19:54;;;;;;;13.07;6.17;;;9.50;99.90;;;;;;5067522;28;20436;-58
2023/10/08 01:22:22;;;;;;;15.37;6.50;;;9.40;99.90;;;;;;5063678;28;20527;-57
2023/10/08 01:24:51;;;;;;;10.10;5.13;;;9.40;99.90;;;;;;5066903;28;21050;-58
2023/10/08 01:27:24;;;;;;;9.83;5.57;;;9.30;99.90;;;;;;5064316;28;20436;-58
2023/10/08 01:29:52;;;;;;;10.47;6.30;;;9.40;99.90;;;;;;5063791;28;20533;-57
2023/10/08 01:32:20;;;;;;;12.53;6.30;;;9.30;99.90;;;;;;5061910;28;21036;-57
2023/10/08 01:34:46;;;;;;;8.60;5.30;;;9.30;99.90;;;;;;5060230;28;20525;-58
2023/10/08 01:37:19;;;;;;;11.47;6.13;;;9.30;99.90;;;;;;5075891;28;20425;-58
2023/10/08 01:39:45;;;;;;;12.07;5.80;;;9.30;99.90;;;;;;5058337;28;20448;-58
2023/10/08 01:42:20;;;;;;;12.47;5.80;;;9.20;99.90;;;;;;5063445;28;20443;-58
2023/10/08 01:44:47;;;;;;;10.23;5.63;;;9.20;99.90;;;;;;5061299;28;20523;-58
2023/10/08 01:47:15;;;;;;;13.37;6.30;;;9.20;99.90;;;;;;5059694;28;20523;-59
2023/10/08 01:49:43;;;;;;;12.67;6.30;;;9.20;99.90;;;;;;5062984;28;20496;-58
2023/10/08 01:52:17;;;;;;;11.73;5.30;;;9.20;99.90;;;;;;5064233;28;21032;-58
2023/10/08 01:54:44;;;;;;;11.33;6.13;;;9.10;99.90;;;;;;5063649;28;20481;-58
2023/10/08 01:57:10;;;;;;;11.80;6.10;;;9.10;99.90;;;;;;5066199;28;21162;-57
2023/10/08 01:59:37;;;;;;;9.80;5.20;;;9.10;99.90;;;;;;5063113;28;20437;-58
2023/10/08 02:02:05;;;;;;;9.90;6.07;;;9.10;99.90;;;;;;5062703;28;20485;-57
2023/10/08 02:04:37;;;;;;;10.37;6.20;;;9.10;99.90;;;;;;5066209;28;20689;-58
2023/10/08 02:07:12;;;;;;;8.83;4.83;;;9.00;99.90;;;;;;5062572;28;20938;-58
2023/10/08 02:09:38;;;;;;;10.87;6.80;;;9.00;99.90;;;;;;5063954;28;20451;-58
2023/10/08 02:12:04;;;;;;;9.17;5.33;;;9.00;99.90;;;;;;5067568;28;20456;-58
2023/10/08 02:14:35;;;;;;;11.73;6.33;;;9.00;99.90;;;;;;5064296;28;20448;-58
2023/10/08 02:17:05;;;;;;;14.47;7.07;;;9.00;99.90;;;;;;5065397;28;20181;-57
2023/10/08 02:19:32;;;;;;;13.43;5.87;;;9.00;99.90;;;;;;5066469;28;20599;-58
2023/10/08 02:21:58;;;;;;;9.73;5.90;;;8.90;99.90;;;;;;5066244;28;20429;-58
2023/10/08 02:24:25;;;;;;;14.30;6.17;;;8.90;99.90;;;;;;5068451;28;20451;-58
2023/10/08 02:26:54;;;;;;;11.03;5.80;;;8.90;99.90;;;;;;5064748;28;20836;-59
2023/10/08 02:29:24;;;;;;;9.23;5.70;;;8.90;99.90;;;;;;5064226;28;20538;-57
2023/10/08 02:31:50;;;;;;;10.50;6.10;;;8.90;99.90;;;;;;5066032;28;20704;-57
2023/10/08 02:34:15;;;;;;;13.43;6.37;;;8.90;99.90;;;;;;5067873;28;21087;-57
2023/10/08 02:36:41;;;;;;;11.20;6.40;;;8.80;99.90;;;;;;5065505;28;20291;-58
2023/10/08 02:39:16;;;;;;;9.33;6.63;;;8.80;99.90;;;;;;5066548;28;20171;-57
2023/10/08 02:41:45;;;;;;;14.03;6.47;;;8.80;99.90;;;;;;5068291;28;20503;-58
2023/10/08 02:44:13;;;;;;;13.50;6.50;;;8.80;99.90;;;;;;5066464;28;20424;-58
2023/10/08 02:46:47;;;;;;;13.13;6.03;;;8.80;99.90;;;;;;5057635;28;20552;-57
2023/10/08 02:49:20;;;;;;;9.60;5.97;;;8.70;99.90;;;;;;5060259;28;20448;-56
2023/10/08 02:51:47;;;;;;;13.20;6.27;;;8.70;99.90;;;;;;5062798;28;20511;-58
2023/10/08 02:54:18;;;;;;;15.10;7.30;;;8.70;99.90;;;;;;5063890;28;20432;-58
2023/10/08 02:56:55;;;;;;;9.23;6.20;;;8.70;99.90;;;;;;5062689;28;20429;-59
2023/10/08 02:59:22;;;;;;;11.70;6.10;;;8.70;99.90;;;;;;5066328;28;20433;-57
2023/10/08 03:01:49;;;;;;;14.63;6.67;;;8.70;99.90;;;;;;5067365;28;20437;-58
2023/10/08 03:04:18;;;;;;;11.83;6.30;;;8.70;99.90;;;;;;5061234;28;20429;-57
2023/10/08 03:06:50;;;;;;;12.60;6.17;;;8.70;99.90;;;;;;5064903;28;20572;-58
2023/10/08 03:09:23;;;;;;;13.10;6.80;;;8.70;99.90;;;;;;5064476;28;20459;-58
2023/10/08 03:11:49;;;;;;;13.77;6.70;;;8.70;99.90;;;;;;5056655;28;20841;-58
2023/10/08 03:14:21;;;;;;;14.97;6.70;;;8.60;99.90;;;;;;5065795;28;20482;-58
2023/10/08 03:16:52;;;;;;;12.43;6.07;;;8.60;99.90;;;;;;5064193;28;20428;-59
2023/10/08 03:19:19;;;;;;;17.83;6.47;;;8.60;99.90;;;;;;5063269;28;20796;-58
2023/10/08 03:21:50;;;;;;;12.00;6.50;;;8.60;99.90;;;;;;5061993;28;20429;-57
2023/10/08 03:27:07;;;;;;;15.30;6.70;;;8.60;99.90;;;;;;5062516;28;20418;-58
2023/10/08 03:29:40;;;;;;;12.50;6.80;;;8.60;99.90;;;;;;5066871;28;20444;-59
2023/10/08 03:32:06;;;;;;;15.40;8.23;;;8.60;99.90;;;;;;5069443;28;20907;-59
2023/10/08 03:34:34;;;;;;;13.43;7.10;;;8.60;99.90;;;;;;5070126;28;20966;-59
2023/10/08 03:37:05;;;;;;;13.67;6.67;;;8.60;99.90;;;;;;5062447;28;20803;-60
2023/10/08 03:42:24;;;;;;;16.07;6.83;;;8.50;99.90;;;;;;5072138;28;20416;-58
2023/10/08 03:44:55;;;;;;;11.87;6.80;;;8.50;99.90;;;;;;5057680;28;20831;-58
2023/10/08 03:47:26;;;;;;;10.80;6.37;;;8.50;99.90;;;;;;5064372;28;20531;-58
2023/10/08 03:49:54;;;;;;;12.20;6.17;;;8.50;99.90;;;;;;5063424;28;20474;-59
2023/10/08 03:52:26;;;;;;;9.83;6.53;;;8.50;99.90;;;;;;5063777;28;20505;-58
2023/10/08 03:57:41;;;;;;;15.00;7.80;;;8.50;99.90;;;;;;5064723;28;20427;-58
2023/10/08 04:00:13;;;;;;;11.80;6.90;;;8.40;99.90;;;;;;5062272;28;20448;-58
2023/10/08 04:02:40;;;;;;;14.70;5.80;;;8.40;99.90;;;;;;5064460;28;20434;-58
2023/10/08 04:05:19;;;;;;;14.10;6.20;;;8.40;99.90;;;;;;5059309;28;20792;-58
2023/10/08 04:13:16;;;;;;;13.90;6.30;;;8.40;99.90;;;;;;5062500;28;20456;-58
2023/10/08 04:15:42;;;;;;;15.87;6.77;;;8.40;99.90;;;;;;5063873;28;20420;-58
2023/10/08 04:18:08;;;;;;;13.33;6.93;;;8.40;99.90;;;;;;5066025;28;20431;-59
2023/10/08 04:20:38;;;;;;;14.90;6.47;;;8.40;99.90;;;;;;5059676;28;20191;-58
2023/10/08 04:23:20;;;;;;;13.50;6.73;;;8.40;99.90;;;;;;5061378;28;20432;-58
2023/10/08 04:25:53;;;;;;;14.33;6.20;;;8.30;99.90;;;;;;5061134;28;20416;-59
2023/10/08 04:28:20;;;;;;;9.90;5.97;;;8.30;99.90;;;;;;5063418;28;20813;-57
2023/10/08 04:30:50;;;;;;;14.13;6.27;;;8.30;99.90;;;;;;5064002;28;20868;-59
2023/10/08 04:33:16;;;;;;;12.50;6.20;;;8.40;99.90;;;;;;5069559;28;20458;-59
2023/10/08 04:35:55;;;;;;;12.73;5.37;;;8.30;99.90;;;;;;5069119;28;20428;-58
2023/10/08 04:38:23;;;;;;;22.73;6.30;;;8.30;99.90;;;;;;5063718;28;20501;-58
2023/10/08 04:40:50;;;;;;;10.43;5.80;;;8.30;99.90;;;;;;5064240;28;20453;-58
2023/10/08 04:43:24;;;;;;;14.73;6.10;;;8.30;99.90;;;;;;5070725;28;20435;-59
2023/10/08 04:45:51;;;;;;;11.33;6.03;;;8.30;99.90;;;;;;5063474;28;20425;-58
2023/10/08 04:48:20;;;;;;;15.10;5.80;;;8.30;99.90;;;;;;5066446;28;20428;-58
2023/10/08 04:50:58;;;;;;;13.83;6.43;;;8.20;99.90;;;;;;5069455;28;20461;-58
2023/10/08 04:53:36;;;;;;;11.33;6.80;;;8.20;99.90;;;;;;5068899;28;20464;-58
2023/10/08 04:56:06;;;;;;;17.77;6.67;;;8.20;99.90;;;;;;5068400;28;20428;-58
2023/10/08 04:58:36;;;;;;;9.70;6.07;;;8.20;99.90;;;;;;5066489;28;20425;-59
2023/10/08 05:01:17;;;;;;;10.87;5.60;;;8.20;99.90;;;;;;5069935;28;20436;-58
2023/10/08 05:04:06;;;;;;;12.80;6.10;;;8.20;99.90;;;;;;5068266;28;20416;-58
2023/10/08 05:12:10;;;;;;;14.47;6.80;;;8.20;99.90;;;;;;5069520;28;20452;-58
2023/10/08 05:17:11;;;;;;;12.40;6.70;;;8.20;99.90;;;;;;5068183;28;20777;-58
2023/10/08 05:27:38;;;;;;;10.03;5.50;;;8.10;99.90;;;;;;5062199;28;21217;-57
2023/10/08 05:30:17;;;;;;;15.03;6.33;;;8.10;99.90;;;;;;5064005;28;20490;-59
2023/10/08 05:35:48;;;;;;;14.23;5.50;;;8.10;99.90;;;;;;5059063;28;20482;-58
2023/10/08 05:39:04;;;;;;;12.93;5.60;;;8.00;99.90;;;;;;5068017;28;21095;-58
2023/10/08 05:41:27;;;;;;;13.17;6.43;;;8.00;99.90;;;;;;5061513;28;21543;-58
2023/10/08 05:44:14;;;;;;;18.67;6.20;;;8.00;99.90;;;;;;5060396;28;20413;-57
2023/10/08 05:46:49;;;;;;;19.07;6.00;;;8.00;99.90;;;;;;5063391;28;20433;-58
2023/10/08 05:52:11;;;;;;;15.50;6.57;;;8.00;99.90;;;;;;5060969;28;21026;-58
2023/10/08 06:13:09;;;;;;;11.27;6.60;;;8.00;99.90;;;;;;5068239;28;20456;-59
2023/10/08 06:16:04;;;;;;;16.17;6.83;;;8.10;99.90;;;;;;5064437;28;20761;-58
2023/10/08 06:18:31;;;;;;;16.50;6.17;;;8.10;99.90;;;;;;5064921;28;20574;-58
2023/10/08 06:21:00;;;;;;;16.10;7.73;;;8.10;99.90;;;;;;5063109;28;20464;-58
2023/10/08 06:23:28;;;;;;;11.63;6.03;;;8.10;99.90;;;;;;5080863;28;20575;-59
2023/10/08 06:25:58;;;;;;;12.40;6.33;;;8.10;99.90;;;;;;5064040;28;20425;-58
2023/10/08 06:28:26;;;;;;;11.43;6.10;;;8.20;99.90;;;;;;5063960;28;20502;-58
2023/10/08 06:30:53;;;;;;;17.90;6.73;;;8.20;99.90;;;;;;5067109;28;20487;-57
2023/10/08 06:33:20;;;;;;;15.60;6.30;;;8.30;99.90;;;;;;5065846;28;20994;-58
2023/10/08 06:38:48;;;;;;;10.37;6.87;;;8.30;99.90;;;;;;5063166;28;20416;-58
2023/10/08 06:44:26;;;;;;;11.87;6.87;;;8.50;99.90;;;;;;5066810;28;20413;-58
2023/10/08 06:46:34;;;;;;;13.37;6.63;;;8.60;99.90;;;;;;5064811;28;20182;-60
2023/10/08 06:49:00;;;;;;;11.73;5.90;;;8.60;99.90;;;;;;5059366;28;20449;-59
2023/10/08 06:51:26;;;;;;;14.00;7.00;;;8.70;99.90;;;;;;5065686;28;20456;-58
2023/10/08 06:53:53;;;;;;;10.87;8.17;;;8.80;99.90;;;;;;5067495;28;20983;-58
2023/10/08 06:56:19;;;;;;;14.60;7.87;;;8.80;99.90;;;;;;5064982;28;20174;-57
2023/10/08 06:58:49;;;;;;;11.07;6.87;;;8.90;99.90;;;;;;5067240;28;20462;-58
2023/10/08 07:01:21;;;;;;;17.73;7.03;;;8.90;99.90;;;;;;5065247;28;20494;-58
2023/10/08 07:04:03;;;;;;;12.70;7.07;;;9.00;99.90;;;;;;5068046;28;20421;-58
2023/10/08 07:06:33;;;;;;;16.67;6.33;;;9.10;99.90;;;;;;5063121;28;20421;-58
2023/10/08 07:09:04;;;;;;;18.40;8.97;;;9.10;99.90;;;;;;5062385;28;20792;-58
2023/10/08 07:11:34;;;;;;;14.90;6.87;;;9.20;99.90;;;;;;5061828;28;20473;-57
2023/10/08 07:14:04;;;;;;;22.83;7.10;;;9.20;99.90;;;;;;5061007;28;20444;-59
2023/10/08 07:16:30;;;;;;;16.00;6.67;;;9.30;99.90;;;;;;5063580;28;20428;-59
2023/10/08 07:19:02;;;;;;;14.93;6.40;;;9.30;99.90;;;;;;5065453;28;20425;-58
2023/10/08 07:21:28;;;;;;;15.27;7.83;;;9.40;99.90;;;;;;5066230;28;20455;-57
2023/10/08 07:23:59;;;;;;;17.73;7.77;;;9.40;99.90;;;;;;5065339;28;20434;-59
2023/10/08 07:26:37;;;;;;;11.60;6.87;;;9.50;99.90;;;;;;5066108;28;20470;-60
2023/10/08 07:29:08;;;;;;;12.00;6.77;;;9.60;99.90;;;;;;5062233;28;20888;-58
2023/10/08 07:31:36;;;;;;;24.53;8.27;;;9.70;99.90;;;;;;5067469;28;20954;-58
2023/10/08 07:36:47;;;;;;;13.93;6.60;;;9.80;99.90;;;;;;5066061;28;20487;-60
2023/10/08 07:39:33;;;;;;;24.67;6.47;;;10.00;99.90;;;;;;5063723;28;20532;-57
2023/10/08 07:42:00;;;;;;;12.00;6.60;;;10.00;99.90;;;;;;5063738;28;20884;-60
2023/10/08 07:44:30;;;;;;;20.40;7.90;;;10.10;99.90;;;;;;5064449;28;20425;-60
2023/10/08 07:46:55;;;;;;;16.90;8.07;;;10.20;99.90;;;;;;5067189;28;20432;-57
2023/10/08 07:49:23;;;;;;;16.20;7.67;;;10.30;99.90;;;;;;5064647;28;20422;-59
2023/10/08 07:51:52;;;;;;;12.20;7.10;;;10.40;99.90;;;;;;5064238;28;20595;-60
2023/10/08 07:54:24;;;;;;;15.03;7.17;;;10.50;99.90;;;;;;5064023;28;21238;-59
2023/10/08 07:57:08;;;;;;;10.30;6.90;;;10.60;99.90;;;;;;5061563;28;20432;-59
2023/10/08 07:59:38;;;;;;;15.23;7.13;;;10.70;99.90;;;;;;5061500;28;20466;-59
2023/10/08 08:02:09;;;;;;;11.23;5.80;;;10.80;99.90;;;;;;5060024;28;20497;-58
2023/10/08 08:04:45;;;;;;;15.53;6.67;;;11.00;99.90;;;;;;5059647;28;20443;-59
2023/10/08 08:07:18;;;;;;;15.67;6.93;;;11.00;99.90;;;;;;5066424;28;20424;-59
2023/10/08 08:09:52;;;;;;;18.77;8.30;;;11.10;99.90;;;;;;5065307;28;20445;-57
2023/10/08 08:12:21;;;;;;;19.90;7.10;;;11.20;99.90;;;;;;5066002;28;20460;-58
2023/10/08 08:14:48;;;;;;;11.40;5.80;;;11.30;99.90;;;;;;5060973;28;20448;-57
2023/10/08 08:17:14;;;;;;;13.63;5.90;;;11.40;99.90;;;;;;5066044;28;20416;-58
2023/10/08 08:19:41;;;;;;;13.57;5.03;;;11.50;99.90;;;;;;5060899;28;20966;-57
2023/10/08 08:22:07;;;;;;;13.40;6.30;;;11.60;99.90;;;;;;5063033;28;20436;-57
2023/10/08 08:24:35;;;;;;;14.03;6.80;;;11.80;99.90;;;;;;5056764;28;20478;-58
2023/10/08 08:27:08;;;;;;;12.40;6.10;;;11.90;99.90;;;;;;5062438;28;20991;-57
2023/10/08 08:29:44;;;;;;;16.43;6.70;;;12.00;99.90;;;;;;5057400;28;20540;-58
2023/10/08 08:32:15;;;;;;;11.67;6.43;;;12.10;99.90;;;;;;5059788;28;20506;-58
2023/10/08 08:34:44;;;;;;;16.10;6.43;;;12.30;99.40;;;;;;5056458;28;20432;-58
2023/10/08 08:37:13;;;;;;;17.67;5.73;;;12.40;97.70;;;;;;5060933;28;20428;-58
2023/10/08 08:39:41;;;;;;;13.60;6.20;;;12.50;95.90;;;;;;5065337;28;21052;-57
2023/10/08 08:42:07;;;;;;;13.77;5.93;;;12.60;94.60;;;;;;5063799;28;20486;-58
2023/10/08 08:44:45;;;;;;;16.33;6.50;;;12.80;93.50;;;;;;5061743;28;20468;-58
2023/10/08 08:47:17;;;;;;;20.10;7.50;;;12.90;92.70;;;;;;5065888;28;20813;-58
2023/10/08 08:49:46;;;;;;;19.53;6.13;;;13.00;91.60;;;;;;5063279;28;20440;-58
2023/10/08 08:52:12;;;;;;;18.90;6.70;;;13.20;88.80;;;;;;5060101;28;20464;-58
2023/10/08 08:54:38;;;;;;;11.60;6.33;;;13.30;83.80;;;;;;5061884;28;20516;-58
2023/10/08 08:57:06;;;;;;;19.33;6.00;;;13.40;82.60;;;;;;5061421;28;20444;-58
2023/10/08 08:59:34;;;;;;;16.43;5.90;;;13.50;81.50;;;;;;5064377;28;20512;-58
2023/10/08 09:02:04;;;;;;;21.60;6.10;;;13.70;79.70;;;;;;5065644;28;20809;-56
2023/10/08 09:04:32;;;;;;;13.93;6.17;;;13.80;79.10;;;;;;5059679;28;20439;-57
2023/10/08 09:07:04;;;;;;;27.73;6.03;;;13.90;79.60;;;;;;5062662;28;20968;-58
2023/10/08 09:09:35;;;;;;;12.70;6.20;;;14.10;80.60;;;;;;5060337;28;20440;-58
2023/10/08 09:12:01;;;;;;;19.27;5.60;;;14.30;80.20;;;;;;5059347;28;20449;-57
2023/10/08 09:14:34;;;;;;;11.07;5.53;;;14.50;80.00;;;;;;5057704;28;21092;-58
2023/10/08 09:17:00;;;;;;;18.60;6.57;;;14.60;78.30;;;;;;5064943;28;20205;-57
2023/10/08 09:19:26;;;;;;;18.10;7.10;;;14.80;75.70;;;;;;5061453;28;20536;-58
2023/10/08 09:22:08;;;;;;;16.10;6.40;;;15.00;73.60;;;;;;5067342;28;20432;-58
2023/10/08 09:24:38;;;;;;;15.80;7.10;;;15.20;72.70;;;;;;5066719;28;21004;-58
2023/10/08 09:27:08;;;;;;;18.20;6.60;;;15.40;73.10;;;;;;5067269;28;20780;-57
2023/10/08 09:29:40;;;;;;;14.37;6.63;;;15.60;72.10;;;;;;5065443;28;20433;-59
2023/10/08 09:32:09;;;;;;;17.10;7.23;;;15.90;70.90;;;;;;5066674;28;20460;-58
2023/10/08 09:34:36;;;;;;;25.03;7.57;;;16.10;70.40;;;;;;5068115;28;20440;-57
2023/10/08 09:37:02;;;;;;;21.03;6.67;;;16.40;69.50;;;;;;5066771;28;20466;-57
2023/10/08 09:39:33;;;;;;;21.27;7.03;;;16.60;69.20;;;;;;5066076;28;20437;-57
2023/10/08 09:42:02;;;;;;;20.53;6.40;;;16.90;67.70;;;;;;5070472;28;20421;-58
2023/10/08 09:44:28;;;;;;;22.27;6.63;;;17.10;66.40;;;;;;5064203;28;20437;-60
2023/10/08 09:47:03;;;;;;;22.20;6.30;;;17.40;65.40;;;;;;5070170;28;20433;-59
2023/10/08 09:49:51;;;;;;;17.17;5.90;;;17.60;64.60;;;;;;5064590;28;21047;-58
2023/10/08 09:52:19;;;;;;;22.83;6.37;;;17.80;63.90;;;;;;5063928;28;20467;-58
2023/10/08 09:54:52;;;;;;;21.30;5.37;;;18.00;63.80;;;;;;5064295;28;20433;-57
2023/10/08 09:57:18;;;;;;;28.10;6.17;;;18.20;63.60;;;;;;5068261;28;20474;-57
2023/10/08 09:59:46;;;;;;;19.83;5.30;;;18.50;58.40;;;;;;5061022;28;20527;-58
2023/10/08 10:02:12;;;;;;;28.63;5.03;;;18.70;57.00;;;;;;5061507;28;20428;-58
2023/10/08 10:04:43;;;;;;;27.80;4.87;;;18.90;56.50;;;;;;5060011;28;20493;-59
2023/10/08 10:07:12;;;;;;;36.50;5.23;;;19.20;55.50;;;;;;5061079;28;20183;-58
2023/10/08 10:09:39;;;;;;;20.73;4.40;;;19.50;55.10;;;;;;5061143;28;20456;-58
2023/10/08 10:12:09;;;;;;;23.80;5.23;;;19.80;54.00;;;;;;5060380;28;20460;-57
2023/10/08 10:14:42;;;;;;;29.30;5.10;;;20.00;53.20;;;;;;5064056;28;20479;-58
2023/10/08 10:17:20;;;;;;;19.07;4.93;;;20.30;52.40;;;;;;5062636;28;20453;-58
2023/10/08 10:19:51;;;;;;;23.17;4.73;;;20.50;51.90;;;;;;5063643;28;20784;-59
2023/10/08 10:22:31;;;;;;;29.63;5.77;;;20.70;52.70;;;;;;5062542;28;20423;-59
2023/10/08 10:24:57;;;;;;;27.03;5.50;;;20.70;52.00;;;;;;5061826;28;20475;-59
2023/10/08 10:27:24;;;;;;;25.13;5.13;;;20.70;53.20;;;;;;5060969;28;20440;-57
2023/10/08 10:29:49;;;;;;;33.23;5.70;;;20.80;54.80;;;;;;5061947;28;20460;-56
2023/10/08 10:32:15;;;;;;;17.03;5.23;;;20.80;55.20;;;;;;5077117;28;20467;-56
2023/10/08 10:34:47;;;;;;;14.73;5.13;;;20.80;55.20;;;;;;5062498;28;20871;-57
2023/10/08 10:37:19;;;;;;;18.33;5.27;;;20.70;56.20;;;;;;5062829;28;21498;-58
2023/10/08 10:39:58;;;;;;;22.97;4.47;;;20.60;56.30;;;;;;5061668;28;20536;-59
2023/10/08 10:42:26;;;;;;;19.60;4.83;;;20.50;57.00;;;;;;5063163;28;20428;-59
2023/10/08 10:44:53;;;;;;;16.33;3.87;;;20.40;57.80;;;;;;5067154;28;20536;-58
2023/10/08 10:49:53;;;;;;;28.93;4.83;;;20.20;57.30;;;;;;5057945;28;21248;-59
2023/10/08 10:58:11;;;;;;;18.73;4.70;;;20.30;54.10;;;;;;5067819;28;20926;-57
2023/10/08 11:03:04;;;;;;;18.57;4.07;;;20.40;53.20;;;;;;5060159;28;20943;-57
2023/10/08 11:05:37;;;;;;;21.03;3.80;;;20.50;53.80;;;;;;5065466;28;20460;-57
2023/10/08 11:08:04;;;;;;;17.30;4.70;;;20.90;53.70;;;;;;5062824;28;20417;-58
2023/10/08 11:10:40;;;;;;;13.27;4.10;;;21.40;53.20;;;;;;5061870;28;20446;-59
2023/10/08 11:13:14;;;;;;;18.63;4.73;;;21.80;50.70;;;;;;5066026;28;20452;-57
2023/10/08 11:15:40;;;;;;;16.47;4.57;;;22.30;49.90;;;;;;5065540;28;20421;-58
2023/10/08 11:18:16;;;;;;;28.97;4.47;;;22.70;48.60;;;;;;5066469;28;20421;-57
2023/10/08 11:20:45;;;;;;;27.20;5.00;;;23.00;47.60;;;;;;5065384;28;20521;-60
2023/10/08 11:23:35;;;;;;;17.90;4.70;;;23.20;46.50;;;;;;5061454;28;20429;-60
2023/10/08 11:26:05;;;;;;;22.50;4.20;;;23.60;46.00;;;;;;5064625;28;20829;-61
2023/10/08 11:28:34;;;;;;;26.70;5.33;;;23.80;46.10;;;;;;5060983;28;20441;-59
2023/10/08 11:31:07;;;;;;;9.80;4.10;;;24.00;45.30;;;;;;5062891;28;20958;-60
2023/10/08 11:33:36;;;;;;;23.67;3.77;;;24.20;45.10;;;;;;5057578;28;20530;-60
2023/10/08 11:36:06;;;;;;;12.40;4.07;;;24.30;45.20;;;;;;5057983;28;20463;-60
2023/10/08 11:38:41;;;;;;;16.47;3.57;;;24.70;44.70;;;;;;5058877;28;20416;-60
2023/10/08 11:41:20;;;;;;;19.17;4.37;;;25.10;43.10;;;;;;5062350;28;20451;-58
2023/10/08 11:43:58;;;;;;;16.83;4.47;;;25.70;41.10;;;;;;5059256;28;20189;-60
2023/10/08 11:46:40;;;;;;;16.40;3.87;;;26.20;39.80;;;;;;5065483;28;20178;-60
2023/10/08 11:49:07;;;;;;;12.63;3.88;;;26.70;39.80;;;;;;5065300;28;20177;-59
2023/10/08 11:51:36;;;;;;;29.48;4.80;;;27.20;39.50;;;;;;5062624;28;20212;-59
2023/10/08 11:54:02;;;;;;;20.50;4.03;;;27.50;39.60;;;;;;5065613;28;20166;-61
2023/10/08 11:56:32;;;;;;;16.70;5.18;;;27.70;38.80;;;;;;5062582;28;20235;-61
2023/10/08 11:58:57;;;;;;;13.18;4.25;;;27.90;38.20;;;;;;5064241;28;20207;-60
2023/10/08 12:01:27;;;;;;;17.13;4.43;;;27.80;37.20;;;;;;5063461;28;20270;-60
2023/10/08 12:03:59;;;;;;;20.27;4.60;;;27.60;37.40;;;;;;5066775;28;20194;-61
2023/10/08 12:06:25;;;;;;;15.45;3.88;;;27.50;38.90;;;;;;5067032;28;20532;-61
2023/10/08 12:08:53;;;;;;;13.77;4.15;;;27.40;36.50;;;;;;5064874;28;20661;-61
2023/10/08 12:11:22;;;;;;;16.35;3.42;;;27.40;36.50;;;;;;5064515;28;20201;-60
2023/10/08 12:13:49;;;;;;;13.27;4.03;;;27.40;36.20;;;;;;5058357;28;20201;-60
2023/10/08 12:16:21;;;;;;;16.05;5.70;;;27.20;36.60;;;;;;5066039;28;20165;-59
2023/10/08 12:18:53;;;;;;;16.65;4.18;;;26.80;36.90;;;;;;5062706;28;20216;-61
2023/10/08 12:21:20;;;;;;;14.65;3.78;;;26.20;36.70;;;;;;5058427;28;20197;-62
2023/10/08 12:23:46;;;;;;;13.33;3.60;;;25.70;37.60;;;;;;5066177;28;20170;-60
2023/10/08 12:26:15;;;;;;;12.53;3.50;;;25.60;38.20;;;;;;5066388;28;20189;-61
2023/10/08 12:28:44;;;;;;;15.43;3.73;;;25.60;38.70;;;;;;5062805;28;20201;-59
2023/10/08 12:31:15;;;;;;;12.07;3.90;;;25.60;36.70;;;;;;5065923;28;20190;-59
2023/10/08 12:33:41;;;;;;;18.53;3.83;;;25.40;37.00;;;;;;5065575;28;20197;-59
2023/10/08 12:36:12;;;;;;;17.47;3.40;;;25.20;37.10;;;;;;5063679;28;20324;-58
2023/10/08 12:38:41;;;;;;;18.70;4.00;;;25.10;37.00;;;;;;5063186;28;20274;-59
2023/10/08 12:41:13;;;;;;;19.47;3.47;;;25.20;36.20;;;;;;5062208;28;20256;-59
2023/10/08 12:43:46;;;;;;;18.73;3.77;;;25.40;35.10;;;;;;5059105;28;20566;-59
2023/10/08 12:46:19;;;;;;;20.87;2.93;;;25.40;35.00;;;;;;5060855;28;20412;-59
2023/10/08 12:48:48;;;;;;;19.63;4.10;;;25.20;34.90;;;;;;5061735;28;20424;-60
2023/10/08 12:51:17;;;;;;;16.53;3.83;;;25.00;35.50;;;;;;5063680;28;20467;-59
2023/10/08 12:53:50;;;;;;;21.63;3.47;;;24.80;35.00;;;;;;5066878;28;20467;-60
2023/10/08 12:56:21;;;;;;;16.20;3.10;;;24.50;35.60;;;;;;5067285;28;20420;-59
2023/10/08 12:58:48;;;;;;;13.57;2.90;;;24.40;37.30;;;;;;5066046;28;20503;-59
2023/10/08 13:01:17;;;;;;;14.43;3.50;;;24.30;37.90;;;;;;5063533;28;21008;-59
2023/10/08 13:03:47;;;;;;;14.13;4.00;;;24.20;37.50;;;;;;5066850;28;20440;-59
2023/10/08 13:06:21;;;;;;;19.13;4.57;;;24.30;39.10;;;;;;5067402;28;20428;-59
2023/10/08 13:08:52;;;;;;;30.93;4.00;;;24.20;39.70;;;;;;5067942;28;20573;-59
2023/10/08 13:11:22;;;;;;;15.43;3.70;;;24.10;38.80;;;;;;5068948;28;20448;-59
2023/10/08 13:13:51;;;;;;;17.77;3.27;;;24.10;36.80;;;;;;5061743;28;20471;-59
2023/10/08 13:16:18;;;;;;;19.50;4.50;;;24.10;37.30;;;;;;5069366;28;20427;-59
2023/10/08 13:18:43;;;;;;;17.73;4.30;;;24.00;38.00;;;;;;5068895;28;21055;-59
2023/10/08 13:21:10;;;;;;;17.27;3.57;;;23.90;37.40;;;;;;5067074;28;20463;-58
2023/10/08 13:23:36;;;;;;;13.03;3.67;;;23.80;36.50;;;;;;5067613;28;20189;-59
2023/10/08 13:26:06;;;;;;;25.17;4.67;;;23.80;36.80;;;;;;5070327;28;20507;-59
2023/10/08 13:28:33;;;;;;;19.43;4.17;;;23.60;36.50;;;;;;5067707;28;20425;-58
2023/10/08 13:31:00;;;;;;;20.30;3.93;;;23.50;36.60;;;;;;5062597;28;20440;-59
2023/10/08 13:33:26;;;;;;;15.43;3.70;;;23.40;36.40;;;;;;5067374;28;20471;-59
2023/10/08 13:35:52;;;;;;;24.57;4.33;;;23.30;37.40;;;;;;5069998;28;20416;-60
2023/10/08 13:38:23;;;;;;;30.50;4.93;;;23.30;37.90;;;;;;5068936;28;20170;-59
2023/10/08 13:41:29;;;;;;;21.00;4.43;;;23.20;37.80;;;;;;5061542;28;20190;-60
2023/10/08 13:43:46;;;;;;;15.80;4.27;;;23.20;37.60;;;;;;5065266;28;20417;-59
2023/10/08 13:46:14;;;;;;;15.13;4.13;;;23.40;37.90;;;;;;5067979;28;20425;-59
2023/10/08 13:48:48;;;;;;;19.33;4.23;;;23.80;38.50;;;;;;5057038;28;20926;-59
2023/10/08 13:51:20;;;;;;;15.80;5.10;;;24.20;38.00;;;;;;5061216;28;20476;-59
2023/10/08 13:53:52;;;;;;;14.50;5.20;;;24.60;38.70;;;;;;5066079;28;20464;-60
2023/10/08 13:56:20;;;;;;;16.30;5.30;;;25.00;41.40;;;;;;5067090;28;20443;-59
2023/10/08 13:58:49;;;;;;;13.07;4.40;;;25.30;43.40;;;;;;5065876;28;20429;-59
2023/10/08 14:01:19;;;;;;;16.73;4.50;;;25.60;43.40;;;;;;5066807;28;20448;-59
2023/10/08 14:03:55;;;;;;;19.77;5.20;;;25.80;42.40;;;;;;5068221;28;20497;-60
2023/10/08 14:06:22;;;;;;;19.63;4.50;;;26.00;44.40;;;;;;5067623;28;20934;-59
2023/10/08 14:08:54;;;;;;;15.40;5.03;;;26.10;42.20;;;;;;5066227;28;20448;-59
2023/10/08 14:11:29;;;;;;;24.77;4.40;;;26.20;43.30;;;;;;5066710;28;20456;-59
2023/10/08 14:13:56;;;;;;;14.30;4.93;;;26.20;38.40;;;;;;5067726;28;20463;-59
2023/10/08 14:16:28;;;;;;;11.43;5.10;;;26.30;41.60;;;;;;5067631;28;20919;-59
2023/10/08 14:18:55;;;;;;;12.60;5.60;;;26.50;44.80;;;;;;5066614;28;20420;-60